Data for 02/25/2008

Time Sea-Level Adjusted Pressure Absolute Pressure Temperature Relative Humidity Dew Point   
(mb) (inHg) (mb) (inHg) (C) (F) (%) (C) (F)
00:05 1015 29.97 844 24.92 -0.2 31.7 164 6.8 44.3
00:10 1015 29.97 844 24.92 -0.2 31.6 164 6.8 44.2
00:15 1015 29.97 844 24.92 -0.2 31.6 164 6.8 44.2
00:20 1015 29.97 844 24.92 -0.3 31.5 164 6.7 44.1
00:25 1015 29.97 844 24.92 -0.4 31.4 164 6.6 43.9
00:30 1015 29.97 844 24.92 -0.4 31.2 164 6.6 43.8
00:35 1015 29.97 844 24.92 -0.5 31.1 164 6.5 43.7
00:40 1015 29.97 844 24.92 -0.6 31 164 6.4 43.5
00:45 1015 29.97 844 24.92 -0.6 31 164 6.4 43.5
00:50 1015 29.97 844 24.92 -0.6 30.9 164 6.4 43.5
00:55 1015 29.97 844 24.92 -0.6 30.9 164 6.3 43.4
01:00 1015 29.97 844 24.92 -0.6 30.9 164 6.3 43.4
01:05 1015 29.97 845 24.95 -0.7 30.8 164 6.3 43.3
01:10 1015 29.97 845 24.95 -0.7 30.7 164 6.2 43.2
01:15 1015 29.97 845 24.95 -0.7 30.7 164 6.2 43.2
01:20 1015 29.97 845 24.95 -0.9 30.4 164 6.1 42.9
01:25 1015 29.97 845 24.95 -0.9 30.3 164 6 42.8
01:30 1016 30 845 24.95 -0.9 30.4 164 6.1 42.9
01:35 1016 30 845 24.95 -1 30.1 164 5.9 42.6
01:40 1016 30 845 24.95 -1.1 30 164 5.8 42.5
01:45 1016 30 845 24.95 -1 30.2 164 5.9 42.7
01:50 1016 30 845 24.95 -0.9 30.4 164 6.1 42.9
01:55 1016 30 845 24.95 -0.9 30.4 164 6.1 42.9
02:00 1016 30 845 24.95 -0.9 30.4 164 6.1 43
02:05 1016 30 845 24.95 -0.9 30.4 164 6.1 42.9
02:10 1016 30 845 24.95 -0.8 30.5 164 6.1 43
02:15 1016 30 845 24.95 -0.7 30.7 164 6.2 43.2
02:20 1016 30 845 24.95 -0.8 30.6 164 6.2 43.1
02:25 1016 30 845 24.95 -0.9 30.3 164 6 42.8
02:30 1016 30 845 24.95 -1.1 30.1 164 5.9 42.6
02:35 1016 30 845 24.95 -1.1 30.1 164 5.9 42.6
02:40 1016 30 845 24.95 -1.1 30.1 164 5.9 42.6
02:45 1016 30 845 24.95 -1.1 30.1 164 5.9 42.6
02:50 1016 30 845 24.95 -1 30.2 164 5.9 42.7
02:55 1016 30 845 24.95 -1 30.1 164 5.9 42.6
03:00 1016 30 845 24.95 -1 30.1 164 5.9 42.6
03:05 1016 30 845 24.95 -1.1 30.1 164 5.9 42.6
03:10 1016 30 845 24.95 -1.1 30 164 5.9 42.5
03:15 1016 30 846 24.98 -1.2 29.9 164 5.8 42.4
03:20 1016 30 846 24.98 -1.2 29.8 164 5.7 42.3
03:25 1016 30 846 24.98 -1.2 29.8 164 5.7 42.3
03:30 1016 30 846 24.98 -1.2 29.8 164 5.7 42.3
03:35 1016 30 846 24.98 -1.2 29.8 164 5.7 42.3
03:40 1016 30 846 24.98 -1.2 29.8 164 5.7 42.2
03:45 1016 30 846 24.98 -1.3 29.7 164 5.7 42.2
03:50 1016 30 846 24.98 -1.3 29.7 164 5.6 42.2
03:55 1016 30 846 24.98 -1.2 29.8 164 5.7 42.2
04:00 1017 30.03 846 24.98 -1.3 29.7 164 5.6 42.1
04:05 1017 30.03 846 24.98 -1.3 29.6 164 5.6 42.1
04:10 1017 30.03 846 24.98 -1.3 29.7 164 5.6 42.2
04:15 1017 30.03 846 24.98 -1.3 29.6 164 5.6 42.1
04:20 1017 30.03 846 24.98 -1.4 29.5 164 5.6 42
04:25 1017 30.03 846 24.98 -1.4 29.4 164 5.5 41.9
04:30 1017 30.03 846 24.98 -1.5 29.3 164 5.4 41.8
04:35 1017 30.03 846 24.98 -1.5 29.2 164 5.4 41.7
04:40 1017 30.03 846 24.98 -1.6 29.2 164 5.3 41.6
04:45 1017 30.03 846 24.98 -1.6 29.2 164 5.4 41.6
04:50 1017 30.03 846 24.98 -1.6 29.1 164 5.3 41.6
04:55 1017 30.03 846 24.98 -1.6 29.1 164 5.3 41.6
05:00 1017 30.03 846 24.98 -1.7 29 164 5.2 41.4
05:05 1017 30.03 846 24.98 -1.7 28.9 164 5.2 41.3
05:10 1017 30.03 846 24.98 -1.8 28.8 164 5.2 41.3
05:15 1017 30.03 846 24.98 -1.8 28.8 164 5.1 41.2
05:20 1017 30.03 847 25.01 -1.8 28.8 164 5.1 41.2
05:25 1017 30.03 847 25.01 -1.8 28.8 164 5.1 41.2
05:30 1017 30.03 847 25.01 -1.8 28.7 164 5.1 41.2
05:35 1017 30.03 847 25.01 -1.8 28.7 164 5.1 41.2
05:40 1017 30.03 847 25.01 -1.9 28.6 164 5 41
05:45 1018 30.06 847 25.01 -1.9 28.5 164 5 41
05:50 1018 30.06 847 25.01 -1.9 28.5 164 5 41
05:55 1018 30.06 847 25.01 -2 28.4 164 4.9 40.9
06:00 1018 30.06 847 25.01 -2 28.4 164 4.9 40.8
06:05 1018 30.06 847 25.01 -2 28.4 164 4.9 40.8
06:10 1018 30.06 847 25.01 -2 28.4 164 4.9 40.8
06:15 1018 30.06 847 25.01 -2 28.5 164 4.9 40.9
06:20 1018 30.06 847 25.01 -2 28.5 164 4.9 40.9
06:25 1018 30.06 847 25.01 -2 28.4 164 4.9 40.8
06:30 1018 30.06 847 25.01 -2 28.4 164 4.9 40.8
06:35 1018 30.06 847 25.01 -2.1 28.3 164 4.8 40.7
06:40 1018 30.06 847 25.01 -2.1 28.2 164 4.8 40.6
06:45 1018 30.06 847 25.01 -2.1 28.3 164 4.8 40.7
06:50 1018 30.06 847 25.01 -2 28.4 164 4.9 40.8
06:55 1018 30.06 847 25.01 -2.1 28.3 164 4.9 40.7
07:00 1018 30.06 847 25.01 -2.1 28.2 164 4.8 40.6
07:05 1018 30.06 847 25.01 -2.3 27.9 164 4.6 40.3
07:10 1018 30.06 847 25.01 -2.2 28.1 164 4.7 40.5
07:15 1018 30.06 847 25.01 -2.1 28.2 164 4.8 40.7
07:20 1018 30.06 848 25.04 -2.3 27.9 164 4.6 40.3
07:25 1018 30.06 848 25.04 -2.3 27.8 164 4.6 40.2
07:30 1018 30.06 848 25.04 -2.4 27.7 164 4.5 40.1
07:35 1018 30.06 848 25.04 -2.5 27.5 164 4.4 39.9
07:40 1019 30.09 848 25.04 -2.5 27.5 164 4.4 39.9
07:45 1019 30.09 848 25.04 -2.3 27.8 164 4.6 40.2
07:50 1019 30.09 848 25.04 -2.2 28 164 4.7 40.4
07:55 1019 30.09 848 25.04 -2.2 28 164 4.7 40.4
08:00 1019 30.09 848 25.04 -2.1 28.2 164 4.8 40.6
08:05 1019 30.09 848 25.04 -2.1 28.3 164 4.9 40.7
08:10 1019 30.09 848 25.04 -2.2 28.1 164 4.7 40.5
08:15 1019 30.09 848 25.04 -2.2 28.1 164 4.7 40.5
08:20 1019 30.09 848 25.04 -2.1 28.3 164 4.8 40.7
08:25 1019 30.09 848 25.04 -1.7 28.9 164 5.2 41.4
08:30 1019 30.09 848 25.04 -1.5 29.2 164 5.4 41.7
08:35 1019 30.09 848 25.04 -1.6 29.2 164 5.4 41.6
08:40 1019 30.09 848 25.04 -1.7 28.9 164 5.2 41.3
08:45 1019 30.09 848 25.04 -1.7 29 164 5.2 41.4
08:50 1019 30.09 849 25.07 -1.5 29.3 164 5.4 41.7
08:55 1019 30.09 849 25.07 -1.4 29.5 164 5.6 42
09:00 1019 30.09 849 25.07 -1.5 29.4 164 5.5 41.9
09:05 1020 30.12 849 25.07 -1.4 29.4 164 5.5 41.9
09:10 1020 30.12 849 25.07 -1.3 29.7 164 5.7 42.2
09:15 1020 30.12 849 25.07 -1.3 29.7 164 5.6 42.2
09:20 1020 30.12 849 25.07 -1.1 30 164 5.8 42.5
09:25 1020 30.12 849 25.07 -1 30.1 164 5.9 42.7
09:30 1020 30.12 849 25.07 -0.9 30.4 164 6.1 42.9
09:35 1020 30.12 849 25.07 -0.9 30.4 164 6 42.9
09:40 1020 30.12 849 25.07 -0.7 30.7 164 6.2 43.2
09:45 1020 30.12 849 25.07 -1 30.2 164 5.9 42.7
09:50 1020 30.12 849 25.07 -0.8 30.5 164 6.1 43
09:55 1020 30.12 849 25.07 -0.8 30.6 164 6.2 43.2
10:00 1020 30.12 849 25.07 -0.9 30.5 164 6.1 43
10:05 1020 30.12 849 25.07 -0.5 31.1 164 6.4 43.6
10:10 1020 30.12 849 25.07 -0.1 31.8 164 6.9 44.4
10:15 1020 30.12 849 25.07 -0.2 31.6 164 6.8 44.2
10:20 1020 30.12 849 25.07 -0.4 31.4 164 6.6 43.9
10:25 1020 30.12 849 25.07 -0.8 30.6 164 6.2 43.1
10:30 1020 30.12 849 25.07 -0.6 30.8 164 6.3 43.4
10:35 1020 30.12 850 25.1 -0.4 31.2 164 6.6 43.8
10:40 1020 30.12 850 25.1 -0.6 30.9 164 6.3 43.4
10:45 1020 30.12 850 25.1 -0.8 30.6 164 6.2 43.1
10:50 1021 30.15 850 25.1 -0.8 30.6 164 6.2 43.1
10:55 1021 30.15 850 25.1 -1 30.2 164 6 42.7
11:00 1021 30.15 850 25.1 -1.1 30 164 5.8 42.5
11:05 1021 30.15 850 25.1 -1 30.2 164 5.9 42.7
11:10 1021 30.15 850 25.1 -0.8 30.5 164 6.1 43
11:15 1021 30.15 850 25.1 -0.6 30.9 164 6.3 43.4
11:20 1021 30.15 850 25.1 -0.7 30.8 164 6.3 43.3
11:25 1021 30.15 850 25.1 -0.8 30.6 164 6.2 43.1
11:30 1021 30.15 850 25.1 -0.9 30.3 164 6 42.8
11:35 1021 30.15 850 25.1 -1 30.2 164 5.9 42.7
11:40 1021 30.15 850 25.1 -0.7 30.8 164 6.3 43.3
11:45 1021 30.15 850 25.1 -0.7 30.7 164 6.2 43.2
11:50 1021 30.15 850 25.1 -0.9 30.4 164 6.1 42.9
11:55 1021 30.15 850 25.1 -1.2 29.9 164 5.8 42.4
12:00 1021 30.15 850 25.1 -0.9 30.3 164 6 42.9
12:05 1021 30.15 851 25.13 -1.1 29.9 164 5.8 42.4
12:10 1021 30.15 851 25.13 -1.7 28.9 164 5.2 41.4
12:15 1021 30.15 851 25.13 -2 28.5 164 4.9 40.9
12:20 1022 30.18 851 25.13 -2.3 27.8 164 4.6 40.2
12:25 1022 30.18 851 25.13 -2.4 27.6 164 4.4 40
12:30 1022 30.18 851 25.13 -2.4 27.7 164 4.5 40.1
12:35 1022 30.18 851 25.13 -2.4 27.8 164 4.5 40.2
12:40 1022 30.18 851 25.13 -2.2 28 164 4.6 40.4
12:45 1022 30.18 851 25.13 -1.7 28.9 164 5.2 41.3
12:50 1022 30.18 851 25.13 -1.5 29.4 164 5.5 41.8
12:55 1022 30.18 851 25.13 -1.7 29 164 5.2 41.4
13:00 1022 30.18 851 25.13 -1.4 29.5 164 5.6 42
13:05 1022 30.18 851 25.13 -1.2 29.8 164 5.7 42.3
13:10 1022 30.18 851 25.13 -1.2 29.8 164 5.7 42.3
13:15 1022 30.18 851 25.13 -1.4 29.4 164 5.5 41.9
13:20 1022 30.18 851 25.13 -1.3 29.7 164 5.7 42.2
13:25 1022 30.18 851 25.13 -1.1 30.1 164 5.9 42.6
13:30 1022 30.18 851 25.13 -1 30.2 164 6 42.7
13:35 1022 30.18 851 25.13 -1.1 30 164 5.8 42.5
13:40 1022 30.18 851 25.13 -0.8 30.5 164 6.1 43
13:45 1022 30.18 851 25.13 -1.1 30 164 5.8 42.5
13:50 1022 30.18 851 25.13 -0.9 30.3 164 6 42.8
13:55 1022 30.18 851 25.13 -0.4 31.2 164 6.5 43.8
14:00 1022 30.18 851 25.13 -0.5 31.1 164 6.5 43.7
14:05 1022 30.18 851 25.13 -0.2 31.6 164 6.7 44.1
14:10 1022 30.18 851 25.13 -0.4 31.3 164 6.6 43.9
14:15 1022 30.18 852 25.16 -0.6 30.9 164 6.4 43.4
14:20 1022 30.18 852 25.16 -0.9 30.3 164 6 42.9
14:25 1022 30.18 852 25.16 -0.6 30.8 164 6.3 43.4
14:30 1022 30.18 852 25.16 -0.5 31.2 164 6.5 43.7
14:35 1023 30.21 852 25.16 -1 30.2 164 6 42.8
14:40 1023 30.21 852 25.16 -1.4 29.5 164 5.5 41.9
14:45 1023 30.21 852 25.16 -1.4 29.5 164 5.5 41.9
14:50 1023 30.21 852 25.16 -1.2 29.8 164 5.7 42.3
14:55 1023 30.21 852 25.16 -1.2 29.8 164 5.7 42.3
15:00 1023 30.21 852 25.16 -0.7 30.7 164 6.2 43.2
15:05 1023 30.21 852 25.16 -0.7 30.8 164 6.3 43.3
15:10 1023 30.21 852 25.16 -0.7 30.7 164 6.2 43.2
15:15 1023 30.21 852 25.16 -1 30.3 164 6 42.8
15:20 1023 30.21 852 25.16 -0.9 30.4 164 6.1 43
15:25 1023 30.21 852 25.16 -0.7 30.7 164 6.3 43.3
15:30 1023 30.21 852 25.16 -0.3 31.4 164 6.7 44
15:35 1023 30.21 853 25.19 -0.3 31.5 164 6.7 44
15:40 1023 30.21 853 25.19 -0.1 31.8 164 6.9 44.4
15:45 1024 30.24 853 25.19 -0.1 31.8 164 6.9 44.4
15:50 1024 30.24 853 25.19 -0.1 31.9 164 6.9 44.4
15:55 1024 30.24 853 25.19 0 32 164 7 44.6
16:00 1024 30.24 853 25.19 -0.2 31.7 164 6.8 44.3
16:05 1024 30.24 853 25.19 -0.3 31.5 164 6.7 44.1
16:10 1024 30.24 853 25.19 -0.4 31.2 164 6.5 43.8
16:15 1024 30.24 853 25.19 -0.4 31.2 164 6.5 43.8
16:20 1024 30.24 853 25.19 -0.4 31.3 164 6.6 43.9
16:25 1024 30.24 853 25.19 -0.4 31.3 164 6.6 43.8
16:30 1024 30.24 854 25.22 -0.3 31.4 164 6.6 44
16:35 1024 30.24 854 25.22 -0.4 31.3 164 6.6 43.9
16:40 1024 30.24 854 25.22 -0.3 31.4 164 6.7 44
16:45 1024 30.24 854 25.22 -0.2 31.6 164 6.7 44.1
16:50 1024 30.24 854 25.22 -0.2 31.6 164 6.8 44.2
16:55 1025 30.27 854 25.22 -0.3 31.5 164 6.7 44
17:00 1025 30.27 854 25.22 -0.3 31.4 164 6.6 44
17:05 1025 30.27 854 25.22 -0.8 30.6 164 6.2 43.1
17:10 1025 30.27 854 25.22 -1 30.2 164 6 42.8
17:15 1025 30.27 854 25.22 -0.9 30.5 164 6.1 43
17:20 1025 30.27 854 25.22 -0.8 30.6 164 6.2 43.1
17:25 1025 30.27 854 25.22 -1 30.2 164 6 42.7
17:30 1025 30.27 854 25.22 -0.9 30.4 164 6.1 42.9
17:35 1025 30.27 854 25.22 -1.2 29.9 164 5.8 42.4
17:40 1025 30.27 854 25.22 -1.4 29.5 164 5.5 42
17:45 1025 30.27 854 25.22 -1.3 29.6 164 5.6 42.1
17:50 1025 30.27 854 25.22 -1.3 29.6 164 5.6 42.1
17:55 1025 30.27 854 25.22 -1.4 29.5 164 5.6 42
18:00 1025 30.27 854 25.22 -1.5 29.3 164 5.4 41.8
18:05 1025 30.27 854 25.22 -1.5 29.3 164 5.4 41.8
18:10 1025 30.27 855 25.25 -1.5 29.3 164 5.4 41.7
18:15 1025 30.27 855 25.25 -1.6 29.1 164 5.3 41.6
18:20 1025 30.27 855 25.25 -1.5 29.3 164 5.4 41.8
18:25 1026 30.3 855 25.25 -1.5 29.3 164 5.4 41.8
18:30 1026 30.3 855 25.25 -1.5 29.3 164 5.4 41.8
18:35 1026 30.3 855 25.25 -1.4 29.4 164 5.5 41.9
18:40 1026 30.3 855 25.25 -1.4 29.4 164 5.5 41.9
18:45 1026 30.3 855 25.25 -1.4 29.5 164 5.5 42
18:50 1026 30.3 855 25.25 -1.4 29.6 164 5.6 42.1
18:55 1026 30.3 855 25.25 -1.4 29.4 164 5.5 41.9
19:00 1026 30.3 856 25.28 -1.5 29.2 164 5.4 41.7
19:05 1026 30.3 856 25.28 -1.6 29.2 164 5.3 41.6
19:10 1026 30.3 856 25.28 -1.7 29 164 5.2 41.4
19:15 1026 30.3 856 25.28 -1.9 28.6 164 5 41
19:20 1026 30.3 856 25.28 -1.9 28.6 164 5 41
19:25 1027 30.33 856 25.28 -1.9 28.5 164 5 41
19:30 1027 30.33 856 25.28 -1.9 28.5 164 5 41
19:35 1027 30.33 856 25.28 -2.1 28.3 164 4.9 40.7
19:40 1027 30.33 856 25.28 -2 28.4 164 4.9 40.8
19:45 1027 30.33 856 25.28 -2 28.4 164 4.9 40.9
19:50 1027 30.33 856 25.28 -2 28.5 164 4.9 40.9
19:55 1027 30.33 856 25.28 -2.3 27.9 164 4.6 40.3
20:00 1027 30.33 856 25.28 -2.5 27.6 164 4.4 40
20:05 1027 30.33 856 25.28 -2.2 28 164 4.6 40.4
20:10 1027 30.33 856 25.28 -2.1 28.1 164 4.8 40.6
20:15 1027 30.33 856 25.28 -2 28.3 164 4.9 40.8
20:20 1027 30.33 856 25.28 -2 28.4 164 4.9 40.8
20:25 1027 30.33 857 25.31 -1.9 28.6 164 5 41
20:30 1027 30.33 857 25.31 -2 28.5 164 4.9 40.9
20:35 1027 30.33 857 25.31 -2.2 28.1 164 4.7 40.5
20:40 1027 30.33 857 25.31 -2.2 28 164 4.7 40.4
20:45 1028 30.36 857 25.31 -2.3 27.8 164 4.6 40.2
20:50 1028 30.36 857 25.31 -2.2 28.1 164 4.7 40.5
20:55 1028 30.36 857 25.31 -2.3 27.8 164 4.5 40.2
21:00 1028 30.36 857 25.31 -2.4 27.7 164 4.5 40.1
21:05 1028 30.36 857 25.31 -2.6 27.3 164 4.3 39.7
21:10 1028 30.36 857 25.31 -2.9 26.7 164 3.9 39.1
21:15 1028 30.36 857 25.31 -3 26.6 164 3.9 39
21:20 1028 30.36 857 25.31 -3 26.5 164 3.8 38.9
21:25 1028 30.36 857 25.31 -3.2 26.3 164 3.7 38.6
21:30 1028 30.36 857 25.31 -3.1 26.5 164 3.8 38.8
21:35 1028 30.36 857 25.31 -3 26.7 164 3.9 39
21:40 1028 30.36 857 25.31 -2.9 26.9 164 4 39.2
21:45 1028 30.36 857 25.31 -2.8 27 164 4.1 39.3
21:50 1028 30.36 857 25.31 -2.7 27.2 164 4.2 39.5
21:55 1028 30.36 857 25.31 -2.6 27.4 164 4.3 39.8
22:00 1028 30.36 857 25.31 -2.5 27.5 164 4.4 39.9
22:05 1028 30.36 857 25.31 -2.4 27.6 164 4.5 40
22:10 1028 30.36 857 25.31 -2.5 27.5 164 4.4 39.9
22:15 1028 30.36 857 25.31 -2.6 27.3 164 4.3 39.7
22:20 1028 30.36 857 25.31 -2.7 27.2 164 4.2 39.6
22:25 1028 30.36 857 25.31 -2.7 27.2 164 4.2 39.5
22:30 1028 30.36 857 25.31 -2.7 27.1 164 4.2 39.5
22:35 1028 30.36 857 25.31 -2.7 27.1 164 4.2 39.5
22:40 1028 30.36 857 25.31 -2.7 27.1 164 4.1 39.4
22:45 1028 30.36 857 25.31 -2.7 27.1 164 4.2 39.5
22:50 1028 30.36 857 25.31 -2.7 27.2 164 4.2 39.6
22:55 1028 30.36 857 25.31 -2.7 27.2 164 4.2 39.6
23:00 1028 30.36 857 25.31 -2.7 27.1 164 4.1 39.5
23:05 1028 30.36 858 25.34 -2.8 26.9 164 4.1 39.3
23:10 1028 30.36 858 25.34 -2.8 26.9 164 4 39.3
23:15 1028 30.36 857 25.31 -2.8 27 164 4.1 39.4
23:20 1028 30.36 858 25.34 -2.7 27.1 164 4.1 39.5
23:25 1028 30.36 858 25.34 -2.8 27 164 4.1 39.4
23:30 1028 30.36 858 25.34 -2.8 27 164 4.1 39.3
23:35 1028 30.36 858 25.34 -2.8 27 164 4.1 39.4
23:40 1028 30.36 858 25.34 -2.7 27.1 164 4.2 39.5
23:45 1028 30.36 857 25.31 -2.7 27.2 164 4.2 39.6
23:50 1028 30.36 857 25.31 -2.7 27.2 164 4.2 39.6
23:55 1028 30.36 857 25.31 -2.6 27.3 164 4.2 39.6
24:00 1028 30.36 857 25.31 -2.6 27.3 164 4.3 39.7